createdAt,value
2023-09-27T00:00:11.648Z,100.00
2023-09-27T00:01:14.902Z,100.00
2023-09-27T00:02:18.325Z,100.00
2023-09-27T00:03:21.434Z,100.00
2023-09-27T00:04:24.497Z,100.00
2023-09-27T00:05:27.931Z,100.00
2023-09-27T00:06:31.072Z,100.00
2023-09-27T00:07:35.071Z,100.00
2023-09-27T00:08:38.164Z,100.00
2023-09-27T00:09:41.147Z,100.00
2023-09-27T00:10:44.041Z,100.00
2023-09-27T00:11:46.711Z,100.00
2023-09-27T00:12:50.257Z,100.00
2023-09-27T00:13:52.930Z,100.00
2023-09-27T00:14:58.861Z,100.00
2023-09-27T00:16:01.782Z,100.00
2023-09-27T00:17:04.988Z,100.00
2023-09-27T00:18:11.078Z,100.00
2023-09-27T00:19:14.280Z,100.00
2023-09-27T00:20:18.612Z,100.00
2023-09-27T00:21:21.566Z,100.00
2023-09-27T00:22:28.348Z,100.00
2023-09-27T00:23:31.526Z,100.00
2023-09-27T00:24:35.244Z,100.00
2023-09-27T00:25:38.132Z,100.00
2023-09-27T00:26:40.984Z,100.00
2023-09-27T00:27:44.341Z,100.00
2023-09-27T00:28:47.538Z,100.00
2023-09-27T00:29:50.344Z,100.00
2023-09-27T00:30:53.383Z,100.00
2023-09-27T00:31:56.035Z,100.00
2023-09-27T00:33:00.530Z,100.00
2023-09-27T00:34:03.749Z,100.00
2023-09-27T00:35:09.599Z,100.00
2023-09-27T00:36:12.861Z,100.00
2023-09-27T00:37:15.803Z,100.00
2023-09-27T00:38:18.507Z,100.00
2023-09-27T00:39:21.970Z,100.00
2023-09-27T00:40:26.263Z,100.00
2023-09-27T00:41:29.277Z,100.00
2023-09-27T00:42:31.992Z,100.00
2023-09-27T00:43:35.352Z,100.00
2023-09-27T00:44:38.307Z,100.00
2023-09-27T00:45:41.346Z,100.00
2023-09-27T00:46:45.016Z,100.00
2023-09-27T00:47:50.529Z,100.00
2023-09-27T00:48:54.178Z,100.00
2023-09-27T00:49:57.620Z,100.00
2023-09-27T00:51:01.699Z,100.00
2023-09-27T00:52:05.471Z,100.00
2023-09-27T00:53:08.193Z,100.00
2023-09-27T00:54:12.368Z,100.00
2023-09-27T00:55:20.655Z,100.00
2023-09-27T00:56:24.373Z,100.00
2023-09-27T00:57:27.143Z,100.00
2023-09-27T00:58:33.816Z,100.00
2023-09-27T00:59:38.160Z,100.00
2023-09-27T01:00:41.558Z,100.00
2023-09-27T01:01:45.771Z,100.00
2023-09-27T01:02:49.070Z,100.00
2023-09-27T01:03:52.537Z,100.00
2023-09-27T01:04:56.038Z,100.00
2023-09-27T01:06:00.413Z,100.00
2023-09-27T01:07:03.163Z,100.00
2023-09-27T01:08:06.955Z,100.00
2023-09-27T01:09:09.951Z,100.00
2023-09-27T01:10:12.942Z,100.00
2023-09-27T01:11:16.374Z,100.00
2023-09-27T01:12:19.901Z,100.00
2023-09-27T01:13:23.086Z,100.00
2023-09-27T01:14:26.199Z,100.00
2023-09-27T01:15:28.924Z,100.00
2023-09-27T01:16:33.407Z,100.00
2023-09-27T01:17:37.190Z,100.00
2023-09-27T01:18:40.420Z,100.00
2023-09-27T01:19:43.392Z,100.00
2023-09-27T01:20:46.429Z,100.00
2023-09-27T01:21:49.817Z,100.00
2023-09-27T01:23:03.513Z,100.00
2023-09-27T01:24:07.795Z,100.00
2023-09-27T01:25:16.320Z,100.00
2023-09-27T01:26:22.039Z,100.00
2023-09-27T01:27:25.869Z,100.00
2023-09-27T01:28:30.673Z,100.00
2023-09-27T01:29:34.586Z,100.00
2023-09-27T01:30:38.793Z,100.00
2023-09-27T01:31:41.848Z,100.00
2023-09-27T01:32:44.907Z,100.00
2023-09-27T01:33:47.884Z,100.00
2023-09-27T01:34:50.795Z,100.00
2023-09-27T01:35:55.393Z,100.00
2023-09-27T01:36:58.999Z,100.00
2023-09-27T01:38:02.790Z,100.00
2023-09-27T01:39:08.217Z,100.00
2023-09-27T01:40:11.423Z,100.00
2023-09-27T01:41:15.001Z,100.00
2023-09-27T01:42:17.642Z,100.00
2023-09-27T01:43:20.807Z,100.00
2023-09-27T01:44:23.819Z,100.00
2023-09-27T01:45:27.582Z,100.00
2023-09-27T01:46:30.521Z,100.00
2023-09-27T01:47:34.382Z,100.00
2023-09-27T01:48:37.725Z,100.00
2023-09-27T01:49:40.416Z,100.00
2023-09-27T01:50:43.467Z,100.00
2023-09-27T01:51:46.732Z,100.00
2023-09-27T01:52:49.746Z,100.00
2023-09-27T01:53:53.480Z,100.00
2023-09-27T01:54:56.168Z,100.00
2023-09-27T01:55:58.879Z,100.00
2023-09-27T01:57:01.792Z,100.00
2023-09-27T01:58:05.262Z,100.00
2023-09-27T01:59:08.532Z,100.00
2023-09-27T02:00:15.369Z,100.00
2023-09-27T02:01:19.020Z,100.00
2023-09-27T02:02:21.760Z,100.00
2023-09-27T02:03:24.439Z,100.00
2023-09-27T02:04:27.158Z,100.00
2023-09-27T02:05:31.494Z,100.00
2023-09-27T02:06:34.684Z,100.00
2023-09-27T02:07:42.029Z,100.00
2023-09-27T02:08:45.166Z,100.00
2023-09-27T02:09:47.822Z,100.00
2023-09-27T02:10:53.682Z,100.00
2023-09-27T02:11:56.955Z,100.00
2023-09-27T02:12:59.902Z,100.00
2023-09-27T02:14:05.673Z,100.00
2023-09-27T02:15:10.401Z,100.00
2023-09-27T02:16:13.435Z,100.00
2023-09-27T02:17:16.884Z,100.00
2023-09-27T02:18:20.211Z,100.00
2023-09-27T02:19:23.216Z,100.00
2023-09-27T02:20:26.360Z,100.00
2023-09-27T02:21:29.577Z,100.00
2023-09-27T02:22:32.356Z,100.00
2023-09-27T02:23:35.585Z,100.00
2023-09-27T02:24:39.467Z,100.00
2023-09-27T02:25:42.544Z,100.00
2023-09-27T02:26:45.712Z,100.00
2023-09-27T02:27:48.606Z,100.00
2023-09-27T02:28:52.188Z,100.00
2023-09-27T02:29:55.162Z,100.00
2023-09-27T02:30:59.572Z,100.00
2023-09-27T02:32:02.843Z,100.00
2023-09-27T02:33:05.970Z,100.00
2023-09-27T02:34:09.338Z,100.00
2023-09-27T02:35:16.725Z,100.00
2023-09-27T02:36:19.712Z,100.00
2023-09-27T02:37:22.792Z,100.00
2023-09-27T02:38:27.200Z,100.00
2023-09-27T02:39:30.465Z,100.00
2023-09-27T02:40:33.398Z,100.00
2023-09-27T02:41:36.100Z,100.00
2023-09-27T02:42:45.554Z,100.00
2023-09-27T02:43:48.237Z,100.00
2023-09-27T02:44:51.903Z,100.00
2023-09-27T02:45:54.895Z,100.00
2023-09-27T02:46:57.897Z,100.00
2023-09-27T02:48:01.978Z,100.00
2023-09-27T02:49:05.972Z,100.00
2023-09-27T02:50:12.363Z,100.00
2023-09-27T02:51:16.739Z,100.00
2023-09-27T02:52:19.961Z,100.00
2023-09-27T02:53:23.237Z,100.00
2023-09-27T02:54:26.301Z,100.00
2023-09-27T02:55:29.523Z,100.00
2023-09-27T02:56:32.873Z,100.00
2023-09-27T02:57:35.998Z,100.00
2023-09-27T02:58:39.194Z,100.00
2023-09-27T02:59:42.202Z,100.00
2023-09-27T03:00:45.388Z,100.00
2023-09-27T03:01:48.576Z,100.00
2023-09-27T03:02:52.311Z,100.00
2023-09-27T03:03:57.149Z,100.00
2023-09-27T03:05:00.442Z,100.00
2023-09-27T03:06:05.604Z,100.00
2023-09-27T03:07:10.093Z,100.00
2023-09-27T03:08:13.429Z,100.00
2023-09-27T03:09:17.235Z,100.00
2023-09-27T03:10:20.276Z,100.00
2023-09-27T03:11:24.178Z,100.00
2023-09-27T03:12:28.159Z,100.00
2023-09-27T03:13:31.011Z,100.00
2023-09-27T03:14:33.950Z,100.00
2023-09-27T03:15:37.319Z,100.00
2023-09-27T03:16:40.930Z,100.00
2023-09-27T03:17:44.428Z,100.00
2023-09-27T03:18:48.647Z,100.00
2023-09-27T03:19:51.577Z,100.00
2023-09-27T03:20:55.250Z,100.00
2023-09-27T03:21:58.457Z,100.00
2023-09-27T03:23:01.461Z,100.00
2023-09-27T03:24:05.160Z,100.00
2023-09-27T03:25:08.960Z,100.00
2023-09-27T03:26:11.636Z,100.00
2023-09-27T03:27:15.545Z,100.00
2023-09-27T03:28:18.676Z,100.00
2023-09-27T03:29:21.584Z,100.00
2023-09-27T03:30:25.136Z,100.00
2023-09-27T03:31:28.155Z,100.00
2023-09-27T03:32:33.172Z,100.00
2023-09-27T03:33:36.170Z,100.00
2023-09-27T03:34:39.125Z,100.00
2023-09-27T03:35:42.767Z,100.00
2023-09-27T03:36:45.521Z,100.00
2023-09-27T03:37:48.587Z,100.00
2023-09-27T03:38:51.764Z,100.00
2023-09-27T03:39:54.579Z,100.00
2023-09-27T03:40:57.770Z,100.00
2023-09-27T03:42:00.646Z,100.00
2023-09-27T03:43:04.093Z,100.00
2023-09-27T03:44:08.361Z,100.00
2023-09-27T03:45:11.483Z,100.00
2023-09-27T03:46:14.530Z,100.00
2023-09-27T03:47:18.295Z,100.00
2023-09-27T03:48:21.457Z,100.00
2023-09-27T03:49:24.363Z,100.00
2023-09-27T03:50:27.366Z,100.00
2023-09-27T03:51:30.376Z,100.00
2023-09-27T03:52:33.070Z,100.00
2023-09-27T03:53:37.027Z,100.00
2023-09-27T03:54:40.006Z,100.00
2023-09-27T03:55:43.125Z,100.00
2023-09-27T03:56:48.031Z,100.00
2023-09-27T03:57:50.764Z,100.00
2023-09-27T03:58:54.304Z,100.00
2023-09-27T03:59:58.340Z,100.00
2023-09-27T04:01:01.261Z,100.00
2023-09-27T04:02:04.437Z,100.00
2023-09-27T04:03:07.699Z,100.00
2023-09-27T04:04:10.652Z,100.00
2023-09-27T04:05:14.872Z,100.00
2023-09-27T04:06:17.750Z,100.00
2023-09-27T04:07:21.262Z,100.00
2023-09-27T04:08:24.452Z,100.00
2023-09-27T04:09:27.430Z,100.00
2023-09-27T04:10:30.763Z,100.00
2023-09-27T04:11:33.576Z,100.00
2023-09-27T04:12:37.498Z,100.00
2023-09-27T04:13:41.102Z,100.00
2023-09-27T04:14:43.945Z,100.00
2023-09-27T04:15:50.671Z,100.00
2023-09-27T04:17:00.777Z,100.00
2023-09-27T04:18:05.191Z,100.00
2023-09-27T04:19:08.254Z,100.00
2023-09-27T04:20:20.592Z,100.00
2023-09-27T04:21:23.575Z,100.00
2023-09-27T04:22:26.474Z,100.00
2023-09-27T04:23:29.833Z,100.00
2023-09-27T04:24:33.017Z,100.00
2023-09-27T04:25:39.020Z,100.00
2023-09-27T04:26:43.085Z,100.00
2023-09-27T04:27:48.653Z,100.00
2023-09-27T04:28:55.381Z,100.00
2023-09-27T04:30:01.366Z,100.00
2023-09-27T04:31:05.214Z,100.00
2023-09-27T04:32:15.305Z,100.00
2023-09-27T04:33:18.317Z,100.00
2023-09-27T04:34:21.662Z,100.00
2023-09-27T04:35:24.985Z,100.00
2023-09-27T04:36:27.726Z,100.00
2023-09-27T04:37:30.339Z,100.00
2023-09-27T04:38:33.331Z,100.00
2023-09-27T04:39:36.561Z,100.00
2023-09-27T04:40:39.837Z,100.00
2023-09-27T04:41:43.938Z,100.00
2023-09-27T04:42:47.418Z,100.00
2023-09-27T04:43:50.382Z,100.00
2023-09-27T04:44:53.633Z,100.00
2023-09-27T04:45:56.356Z,100.00
2023-09-27T04:46:59.291Z,100.00
2023-09-27T04:48:02.013Z,100.00
2023-09-27T04:49:04.735Z,100.00
2023-09-27T04:50:11.720Z,100.00
2023-09-27T04:51:14.773Z,100.00
2023-09-27T04:52:17.828Z,100.00
2023-09-27T04:53:20.804Z,100.00
2023-09-27T04:54:23.652Z,100.00
2023-09-27T04:55:26.538Z,100.00
2023-09-27T04:56:30.809Z,100.00
2023-09-27T04:57:33.504Z,100.00
2023-09-27T04:58:38.546Z,100.00
2023-09-27T04:59:43.026Z,100.00
2023-09-27T05:00:46.328Z,100.00
2023-09-27T05:01:49.130Z,100.00
2023-09-27T05:02:53.380Z,100.00
2023-09-27T05:03:56.566Z,100.00
2023-09-27T05:04:59.343Z,100.00
2023-09-27T05:06:02.364Z,100.00
2023-09-27T05:07:05.428Z,100.00
2023-09-27T05:08:08.467Z,100.00
2023-09-27T05:09:12.873Z,100.00
2023-09-27T05:10:16.108Z,100.00
2023-09-27T05:11:22.324Z,100.00
2023-09-27T05:12:24.998Z,100.00
2023-09-27T05:13:28.200Z,100.00
2023-09-27T05:14:31.171Z,100.00
2023-09-27T05:15:34.194Z,100.00
2023-09-27T05:16:37.436Z,100.00
2023-09-27T05:17:40.224Z,100.00
2023-09-27T05:18:43.298Z,100.00
2023-09-27T05:19:46.026Z,100.00
2023-09-27T05:20:49.041Z,100.00
2023-09-27T05:21:51.936Z,100.00
2023-09-27T05:22:54.795Z,100.00
2023-09-27T05:23:57.734Z,100.00
2023-09-27T05:25:00.617Z,99.64
2023-09-27T05:26:03.546Z,99.26
2023-09-27T05:27:07.822Z,98.99
2023-09-27T05:28:10.915Z,98.34
2023-09-27T05:29:16.694Z,97.84
2023-09-27T05:30:22.455Z,97.31
2023-09-27T05:31:25.409Z,96.79
2023-09-27T05:32:28.901Z,96.51
2023-09-27T05:33:31.856Z,96.07
2023-09-27T05:34:35.352Z,95.63
2023-09-27T05:35:38.096Z,95.25
2023-09-27T05:36:41.859Z,95.01
2023-09-27T05:37:45.946Z,94.56
2023-09-27T05:38:48.904Z,94.20
2023-09-27T05:39:51.661Z,93.72
2023-09-27T05:40:54.398Z,93.32
2023-09-27T05:41:57.320Z,92.47
2023-09-27T05:43:02.778Z,92.31
2023-09-27T05:44:06.021Z,91.71
2023-09-27T05:45:13.317Z,91.39
2023-09-27T05:46:16.520Z,91.16
2023-09-27T05:47:19.743Z,90.84
2023-09-27T05:48:22.806Z,90.54
2023-09-27T05:49:26.978Z,90.50
2023-09-27T05:50:29.879Z,90.03
2023-09-27T05:51:32.540Z,89.75
2023-09-27T05:52:38.414Z,89.47
2023-09-27T05:53:41.646Z,89.17
2023-09-27T05:54:46.258Z,88.60
2023-09-27T05:55:49.533Z,88.06
2023-09-27T05:56:55.300Z,87.75
2023-09-27T05:57:58.226Z,87.25
2023-09-27T05:59:01.291Z,86.90
2023-09-27T06:00:15.020Z,86.88
2023-09-27T06:01:20.703Z,86.25
2023-09-27T06:02:32.158Z,86.01
2023-09-27T06:03:38.738Z,85.76
2023-09-27T06:04:41.808Z,85.52
2023-09-27T06:05:44.456Z,85.20
2023-09-27T06:06:47.399Z,85.13
2023-09-27T06:07:50.256Z,84.87
2023-09-27T06:08:53.646Z,84.94
2023-09-27T06:09:56.795Z,84.62
2023-09-27T06:11:00.781Z,84.24
2023-09-27T06:12:04.086Z,83.91
2023-09-27T06:13:07.141Z,83.67
2023-09-27T06:14:13.104Z,83.22
2023-09-27T06:15:16.257Z,82.72
2023-09-27T06:16:20.451Z,82.59
2023-09-27T06:17:24.387Z,82.34
2023-09-27T06:18:27.920Z,82.24
2023-09-27T06:19:33.785Z,82.11
2023-09-27T06:20:40.186Z,81.85
2023-09-27T06:21:44.270Z,82.14
2023-09-27T06:22:51.867Z,81.81
2023-09-27T06:23:54.509Z,81.56
2023-09-27T06:24:58.125Z,81.33
2023-09-27T06:26:00.814Z,81.23
2023-09-27T06:27:04.151Z,80.94
2023-09-27T06:28:07.134Z,81.00
2023-09-27T06:29:10.482Z,81.08
2023-09-27T06:30:14.311Z,80.46
2023-09-27T06:31:17.271Z,80.51
2023-09-27T06:32:20.208Z,80.14
2023-09-27T06:33:23.316Z,80.30
2023-09-27T06:34:27.421Z,80.19
2023-09-27T06:35:33.352Z,79.62
2023-09-27T06:36:36.369Z,79.36
2023-09-27T06:37:39.612Z,79.24
2023-09-27T06:38:44.937Z,78.96
2023-09-27T06:39:47.982Z,78.95
2023-09-27T06:40:50.972Z,79.15
2023-09-27T06:41:53.884Z,79.16
2023-09-27T06:42:57.012Z,78.79
2023-09-27T06:44:01.786Z,78.41
2023-09-27T06:45:05.418Z,78.32
2023-09-27T06:46:11.809Z,78.05
2023-09-27T06:47:14.711Z,77.36
2023-09-27T06:48:20.047Z,77.39
2023-09-27T06:49:23.118Z,77.12
2023-09-27T06:50:26.174Z,77.33
2023-09-27T06:51:28.921Z,76.89
2023-09-27T06:52:32.364Z,76.99
2023-09-27T06:53:35.449Z,77.26
2023-09-27T06:54:39.123Z,76.86
2023-09-27T06:55:42.855Z,76.72
2023-09-27T06:56:45.766Z,76.58
2023-09-27T06:57:53.670Z,76.38
2023-09-27T06:58:57.609Z,75.81
2023-09-27T07:00:00.791Z,75.96
2023-09-27T07:01:03.686Z,75.81
2023-09-27T07:02:07.445Z,75.58
2023-09-27T07:03:10.548Z,75.10
2023-09-27T07:04:13.675Z,75.12
2023-09-27T07:05:18.022Z,74.78
2023-09-27T07:06:20.711Z,74.37
2023-09-27T07:07:23.360Z,74.16
2023-09-27T07:08:26.260Z,73.63
2023-09-27T07:09:29.185Z,73.29
2023-09-27T07:10:32.108Z,73.58
2023-09-27T07:11:35.487Z,73.83
2023-09-27T07:12:38.289Z,74.05
2023-09-27T07:13:42.657Z,73.52
2023-09-27T07:14:45.345Z,73.44
2023-09-27T07:15:49.290Z,73.44
2023-09-27T07:17:00.833Z,73.60
2023-09-27T07:18:06.170Z,74.29
2023-09-27T07:19:10.420Z,73.72
2023-09-27T07:20:36.730Z,73.42
2023-09-27T07:21:39.836Z,73.57
2023-09-27T07:22:43.707Z,73.09
2023-09-27T07:23:46.591Z,72.46
2023-09-27T07:24:50.058Z,72.22
2023-09-27T07:25:53.876Z,72.44
2023-09-27T07:26:56.888Z,71.79
2023-09-27T07:28:00.014Z,71.28
2023-09-27T07:29:02.677Z,71.83
2023-09-27T07:30:06.209Z,70.65
2023-09-27T07:31:09.551Z,70.10
2023-09-27T07:32:12.659Z,69.70
2023-09-27T07:33:18.801Z,69.54
2023-09-27T07:34:21.615Z,69.82
2023-09-27T07:35:25.999Z,69.38
2023-09-27T07:36:29.070Z,68.64
2023-09-27T07:37:33.834Z,68.58
2023-09-27T07:38:39.320Z,68.13
2023-09-27T07:39:44.467Z,68.08
2023-09-27T07:40:50.521Z,68.01
2023-09-27T07:41:54.071Z,67.38
2023-09-27T07:42:57.444Z,67.34
2023-09-27T07:44:00.311Z,66.81
2023-09-27T07:45:03.538Z,65.81
2023-09-27T07:46:08.515Z,65.39
2023-09-27T07:47:12.217Z,65.28
2023-09-27T07:48:15.884Z,66.15
2023-09-27T07:49:19.283Z,65.83
2023-09-27T07:50:23.915Z,65.50
2023-09-27T07:51:26.809Z,64.34
2023-09-27T07:52:29.670Z,64.93
2023-09-27T07:53:32.906Z,65.41
2023-09-27T07:54:36.416Z,63.84
2023-09-27T07:55:48.071Z,63.24
2023-09-27T07:56:51.960Z,63.75
2023-09-27T07:57:55.983Z,63.91
2023-09-27T07:58:59.940Z,63.81
2023-09-27T08:00:09.782Z,63.12
2023-09-27T08:01:21.295Z,63.15
2023-09-27T08:02:24.578Z,63.53
2023-09-27T08:03:28.661Z,63.84
2023-09-27T08:04:31.508Z,64.01
2023-09-27T08:05:43.567Z,62.88
2023-09-27T08:06:47.676Z,62.45
2023-09-27T08:07:52.243Z,60.43
2023-09-27T08:08:55.756Z,60.38
2023-09-27T08:10:19.210Z,60.47
2023-09-27T08:11:23.986Z,60.09
2023-09-27T08:12:29.214Z,60.17
2023-09-27T08:13:33.217Z,59.44
2023-09-27T08:14:38.030Z,60.06
2023-09-27T08:15:44.736Z,60.61
2023-09-27T08:16:47.964Z,60.46
2023-09-27T08:17:51.081Z,60.96
2023-09-27T08:18:54.282Z,61.29
2023-09-27T08:19:57.567Z,61.38
2023-09-27T08:21:00.880Z,61.83
2023-09-27T08:22:04.292Z,61.81
2023-09-27T08:23:07.298Z,61.69
2023-09-27T08:24:10.441Z,61.20
2023-09-27T08:25:16.820Z,61.59
2023-09-27T08:26:20.635Z,61.49
2023-09-27T08:27:23.430Z,61.38
2023-09-27T08:28:26.892Z,59.39
2023-09-27T08:29:30.303Z,58.42
2023-09-27T08:30:33.583Z,58.71
2023-09-27T08:31:39.222Z,58.89
2023-09-27T08:32:43.278Z,58.65
2023-09-27T08:33:46.276Z,58.56
2023-09-27T08:34:50.100Z,58.22
2023-09-27T08:35:53.935Z,58.23
2023-09-27T08:36:56.589Z,58.85
2023-09-27T08:37:59.739Z,58.75
2023-09-27T08:39:03.566Z,59.40
2023-09-27T08:40:14.659Z,59.49
2023-09-27T08:41:19.419Z,60.11
2023-09-27T08:42:24.494Z,59.82
2023-09-27T08:43:30.706Z,60.26
2023-09-27T08:44:34.181Z,58.55
2023-09-27T08:45:39.537Z,57.24
2023-09-27T08:46:42.633Z,57.30
2023-09-27T08:47:46.560Z,57.55
2023-09-27T08:48:50.743Z,58.56
2023-09-27T08:49:55.001Z,58.54
2023-09-27T08:51:04.411Z,57.71
2023-09-27T08:52:10.178Z,57.79
2023-09-27T08:53:13.902Z,55.47
2023-09-27T08:54:18.830Z,55.79
2023-09-27T08:55:21.730Z,56.04
2023-09-27T08:56:27.152Z,55.94
2023-09-27T08:57:31.115Z,54.88
2023-09-27T08:58:36.519Z,52.14
2023-09-27T08:59:40.382Z,53.51
2023-09-27T09:00:44.394Z,52.92
2023-09-27T09:01:49.086Z,54.69
2023-09-27T09:02:59.255Z,55.16
2023-09-27T09:04:05.792Z,55.58
2023-09-27T09:05:13.317Z,51.49
2023-09-27T09:06:17.617Z,49.65
2023-09-27T09:07:20.932Z,50.49
2023-09-27T09:08:42.252Z,51.39
2023-09-27T09:09:49.405Z,51.91
2023-09-27T09:10:55.072Z,52.32
2023-09-27T09:12:02.293Z,50.37
2023-09-27T09:13:06.510Z,50.41
2023-09-27T09:14:11.814Z,50.15
2023-09-27T09:15:42.625Z,50.21
2023-09-27T09:16:55.607Z,49.89
2023-09-27T09:18:01.416Z,50.23
2023-09-27T09:19:37.498Z,49.58
2023-09-27T09:20:50.897Z,47.21
2023-09-27T09:22:01.600Z,47.36
2023-09-27T09:24:21.711Z,47.17
2023-09-27T09:25:25.582Z,48.81
2023-09-27T09:26:31.201Z,48.34
2023-09-27T09:27:34.419Z,47.27
2023-09-27T09:28:57.772Z,46.73
2023-09-27T09:30:03.619Z,46.85
2023-09-27T09:31:24.987Z,47.10
2023-09-27T09:32:30.600Z,44.32
2023-09-27T09:33:39.164Z,44.11
2023-09-27T09:34:45.965Z,43.85
2023-09-27T09:35:49.462Z,43.92
2023-09-27T09:36:53.370Z,44.41
2023-09-27T09:37:56.225Z,45.82
2023-09-27T09:39:14.792Z,42.67
2023-09-27T09:40:18.408Z,44.12
2023-09-27T09:41:21.750Z,42.72
2023-09-27T09:42:35.235Z,42.25
2023-09-27T09:43:40.128Z,42.69
2023-09-27T09:44:43.292Z,42.73
2023-09-27T09:45:46.215Z,42.36
2023-09-27T09:46:50.186Z,42.27
2023-09-27T09:47:53.739Z,42.34
2023-09-27T09:48:56.464Z,41.73
2023-09-27T09:49:59.803Z,42.85
2023-09-27T09:51:08.593Z,41.61
2023-09-27T09:52:12.993Z,41.75
2023-09-27T09:53:17.411Z,42.92
2023-09-27T09:54:30.325Z,41.60
2023-09-27T09:56:05.175Z,42.79
2023-09-27T09:57:09.092Z,42.13
2023-09-27T09:58:21.869Z,42.05
2023-09-27T09:59:31.795Z,41.58
2023-09-27T10:00:36.641Z,41.44
2023-09-27T10:01:43.730Z,41.44
2023-09-27T10:02:51.313Z,41.14
2023-09-27T10:03:55.270Z,41.66
2023-09-27T10:05:00.418Z,41.67
2023-09-27T10:06:03.731Z,42.46
2023-09-27T10:07:07.569Z,41.27
2023-09-27T10:08:10.203Z,41.00
2023-09-27T10:09:15.869Z,41.37
2023-09-27T10:10:20.546Z,41.19
2023-09-27T10:11:27.470Z,40.55
2023-09-27T10:12:32.073Z,40.75
2023-09-27T10:13:40.837Z,41.08
2023-09-27T10:14:44.490Z,40.33
2023-09-27T10:15:47.651Z,40.20
2023-09-27T10:16:51.699Z,41.42
2023-09-27T10:18:03.890Z,41.22
2023-09-27T10:19:06.942Z,40.70
2023-09-27T10:20:15.435Z,40.83
2023-09-27T10:21:18.242Z,41.41
2023-09-27T10:22:27.335Z,41.68
2023-09-27T10:23:37.108Z,41.97
2023-09-27T10:24:43.818Z,41.48
2023-09-27T10:25:46.540Z,39.95
2023-09-27T10:26:49.698Z,39.55
2023-09-27T10:28:13.401Z,39.70
2023-09-27T10:29:18.021Z,39.49
2023-09-27T10:30:20.832Z,39.19
2023-09-27T10:31:23.808Z,39.41
2023-09-27T10:32:28.251Z,37.92
2023-09-27T10:33:31.763Z,37.98
2023-09-27T10:34:42.404Z,38.11
2023-09-27T10:35:46.002Z,37.93
2023-09-27T10:36:55.640Z,38.07
2023-09-27T10:38:08.578Z,37.23
2023-09-27T10:39:11.926Z,37.13
2023-09-27T10:40:20.286Z,35.94
2023-09-27T10:41:44.913Z,36.58
2023-09-27T10:42:48.030Z,38.69
2023-09-27T10:43:51.069Z,38.19
2023-09-27T10:44:55.024Z,37.28
2023-09-27T10:45:58.752Z,37.94
2023-09-27T10:47:05.634Z,38.02
2023-09-27T10:48:19.901Z,37.71
2023-09-27T10:49:25.968Z,38.37
2023-09-27T10:50:30.669Z,38.39
2023-09-27T10:51:34.846Z,37.58
2023-09-27T10:52:39.828Z,39.08
2023-09-27T10:53:42.607Z,36.07
2023-09-27T10:54:46.288Z,36.53
2023-09-27T10:55:49.201Z,36.23
2023-09-27T10:56:57.261Z,35.73
2023-09-27T10:58:00.966Z,36.12
2023-09-27T10:59:05.321Z,36.26
2023-09-27T11:00:12.073Z,37.02
2023-09-27T11:01:20.918Z,37.18
2023-09-27T11:02:34.008Z,35.67
2023-09-27T11:03:37.020Z,36.18
2023-09-27T11:04:42.239Z,35.85
2023-09-27T11:05:45.202Z,35.32
2023-09-27T11:06:47.910Z,36.80
2023-09-27T11:07:52.304Z,37.23
2023-09-27T11:09:09.144Z,37.14
2023-09-27T11:10:11.882Z,38.46
2023-09-27T11:11:14.598Z,38.81
2023-09-27T11:12:23.973Z,39.24
2023-09-27T11:13:30.754Z,39.55
2023-09-27T11:14:35.163Z,38.13
2023-09-27T11:15:41.879Z,38.21
2023-09-27T11:16:44.567Z,38.28
2023-09-27T11:17:55.177Z,37.00
2023-09-27T11:18:58.858Z,36.19
2023-09-27T11:20:16.634Z,37.19
2023-09-27T11:21:20.458Z,37.72
2023-09-27T11:22:30.152Z,36.90
2023-09-27T11:23:58.020Z,36.44
2023-09-27T11:25:01.329Z,36.22
2023-09-27T11:26:05.955Z,35.24
2023-09-27T11:27:09.490Z,35.18
2023-09-27T11:28:16.340Z,35.64
2023-09-27T11:29:26.599Z,35.50
2023-09-27T11:30:32.193Z,35.27
2023-09-27T11:31:37.037Z,34.94
2023-09-27T11:32:53.007Z,35.56
2023-09-27T11:34:11.892Z,36.09
2023-09-27T11:35:20.383Z,35.79
2023-09-27T11:36:23.648Z,34.63
2023-09-27T11:37:27.313Z,34.36
2023-09-27T11:38:30.234Z,33.97
2023-09-27T11:39:52.466Z,34.43
2023-09-27T11:41:07.514Z,34.32
2023-09-27T11:42:10.854Z,35.10
2023-09-27T11:43:13.895Z,35.58
2023-09-27T11:44:21.353Z,37.03
2023-09-27T11:45:24.752Z,37.62
2023-09-27T11:46:32.403Z,38.07
2023-09-27T11:47:51.633Z,38.87
2023-09-27T11:49:07.949Z,38.84
2023-09-27T11:50:10.923Z,39.30
2023-09-27T11:51:14.064Z,37.76
2023-09-27T11:52:16.723Z,37.75
2023-09-27T11:53:19.697Z,36.43
2023-09-27T11:54:22.974Z,35.32
2023-09-27T11:55:25.888Z,35.15
2023-09-27T11:56:28.763Z,35.47
2023-09-27T11:57:31.430Z,35.20
2023-09-27T11:58:34.734Z,35.05
2023-09-27T11:59:38.870Z,35.46
2023-09-27T12:00:41.639Z,34.87
2023-09-27T12:01:44.908Z,34.07
2023-09-27T12:02:56.435Z,33.60
2023-09-27T12:04:02.465Z,33.53
2023-09-27T12:05:06.719Z,33.10
2023-09-27T12:06:11.204Z,34.21
2023-09-27T12:07:15.362Z,33.86
2023-09-27T12:08:18.128Z,34.79
2023-09-27T12:09:20.944Z,35.81
2023-09-27T12:10:23.791Z,35.23
2023-09-27T12:11:26.844Z,34.74
2023-09-27T12:12:29.908Z,34.79
2023-09-27T12:13:36.305Z,34.16
2023-09-27T12:14:39.399Z,34.03
2023-09-27T12:15:42.421Z,33.11
2023-09-27T12:16:45.100Z,33.42
2023-09-27T12:17:48.473Z,34.66
2023-09-27T12:18:51.557Z,33.30
2023-09-27T12:19:54.938Z,33.61
2023-09-27T12:20:58.154Z,33.24
2023-09-27T12:22:01.489Z,33.12
2023-09-27T12:23:04.539Z,32.85
2023-09-27T12:24:07.778Z,33.13
2023-09-27T12:25:12.827Z,32.95
2023-09-27T12:26:15.931Z,33.60
2023-09-27T12:27:18.944Z,34.43
2023-09-27T12:28:22.238Z,34.08
2023-09-27T12:29:25.882Z,33.38
2023-09-27T12:30:29.243Z,33.77
2023-09-27T12:31:32.075Z,33.56
2023-09-27T12:32:35.145Z,33.81
2023-09-27T12:33:38.227Z,34.15
2023-09-27T12:34:41.221Z,34.00
2023-09-27T12:35:45.731Z,33.12
2023-09-27T12:36:48.940Z,33.67
2023-09-27T12:37:51.943Z,33.70
2023-09-27T12:38:56.332Z,34.20
2023-09-27T12:39:59.408Z,34.13
2023-09-27T12:41:03.966Z,34.39
2023-09-27T12:42:06.781Z,35.36
2023-09-27T12:43:11.525Z,33.85
2023-09-27T12:44:22.297Z,34.47
2023-09-27T12:45:25.809Z,34.37
2023-09-27T12:46:29.854Z,34.92
2023-09-27T12:47:33.321Z,35.55
2023-09-27T12:48:37.512Z,34.84
2023-09-27T12:49:40.888Z,33.28
2023-09-27T12:50:46.520Z,34.26
2023-09-27T12:51:50.174Z,34.16
2023-09-27T12:52:53.034Z,35.04
2023-09-27T12:53:56.984Z,34.35
2023-09-27T12:55:00.118Z,35.63
2023-09-27T12:56:05.953Z,35.18
2023-09-27T12:57:09.430Z,35.97
2023-09-27T12:58:14.404Z,35.04
2023-09-27T12:59:17.494Z,34.82
2023-09-27T13:00:21.652Z,36.42
2023-09-27T13:01:24.740Z,34.94
2023-09-27T13:02:28.312Z,34.83
2023-09-27T13:03:32.833Z,35.63
2023-09-27T13:04:36.311Z,35.41
2023-09-27T13:05:39.872Z,36.46
2023-09-27T13:06:45.160Z,35.53
2023-09-27T13:07:48.087Z,35.67
2023-09-27T13:08:51.341Z,36.30
2023-09-27T13:09:54.134Z,35.50
2023-09-27T13:10:57.258Z,36.47
2023-09-27T13:12:00.008Z,37.29
2023-09-27T13:13:03.906Z,36.15
2023-09-27T13:14:06.595Z,35.62
2023-09-27T13:15:10.952Z,35.63
2023-09-27T13:16:15.598Z,36.52
2023-09-27T13:17:18.952Z,36.71
2023-09-27T13:18:22.025Z,37.31
2023-09-27T13:19:25.137Z,36.94
2023-09-27T13:20:28.182Z,35.52
2023-09-27T13:21:31.378Z,35.87
2023-09-27T13:22:34.509Z,36.30
2023-09-27T13:23:37.992Z,35.59
2023-09-27T13:24:40.813Z,35.91
2023-09-27T13:25:54.599Z,36.24
2023-09-27T13:26:59.262Z,35.83
2023-09-27T13:28:02.012Z,35.74
2023-09-27T13:29:05.585Z,33.73
2023-09-27T13:30:29.273Z,34.17
2023-09-27T13:31:36.058Z,33.95
2023-09-27T13:32:39.232Z,33.82
2023-09-27T13:33:46.382Z,33.76
2023-09-27T13:34:51.646Z,35.21
2023-09-27T13:35:56.522Z,34.55
2023-09-27T13:37:02.157Z,33.46
2023-09-27T13:38:11.887Z,34.04
2023-09-27T13:39:15.587Z,33.53
2023-09-27T13:40:18.846Z,33.12
2023-09-27T13:41:21.672Z,33.15
2023-09-27T13:42:24.666Z,34.21
2023-09-27T13:43:28.048Z,33.88